X  CloseMetar Aviation Weather Data     EGGD Bristol International

Temperature

14°C Temperature

14°C Dewpoint

100% Humidity



Wind

27 KM/H

17 MPH

 8 M/S

15 KTS



260°
Due West
Current Conditions

Fog Fog
Pressure 1013.92 (hPa) - 29.94 (in)
Visibility 0.5 (mi) - 0.8 (km)
Airport
Airport-code EGGD

Location Bristol International 9 (mi)

Metar:
EGGD 080550Z AUTO 26015KT 0750 R27/1300 FG OVC001 14/14 Q1014 RERA

Time: 2020-07-08 06:50